Time;durP1;ratioP1;P1;durP2;ratioP2;P2;SDS_P1;SDS_P2;PMS_P1;PMS_P2;Temp;Humidity;BMP_temperature;BMP_pressure;BME280_temperature;BME280_humidity;BME280_pressure;Samples;Min_cycle;Max_cycle;Signal;HPM_P1;HPM_P2
2021/01/15 00:01:06;;;;;;;54.75;21.10;;;-3.40;85.50;;;;;;5129599;27;20030;-67
2021/01/15 00:03:36;;;;;;;44.80;19.00;;;-3.50;85.80;;;;;;5129291;27;20031;-68
2021/01/15 00:06:06;;;;;;;40.75;19.30;;;-3.50;85.90;;;;;;5129197;27;20027;-68
2021/01/15 00:08:33;;;;;;;42.83;18.38;;;-3.50;86.00;;;;;;5129105;27;20043;-68
2021/01/15 00:10:59;;;;;;;39.75;18.13;;;-3.60;86.10;;;;;;5129343;27;20083;-68
2021/01/15 00:13:24;;;;;;;34.83;17.23;;;-3.60;86.40;;;;;;5129060;27;20334;-68
2021/01/15 00:15:50;;;;;;;34.40;16.73;;;-3.70;86.60;;;;;;5129176;27;20023;-68
2021/01/15 00:18:15;;;;;;;33.35;15.25;;;-3.70;86.70;;;;;;5129290;27;20038;-67
2021/01/15 00:20:41;;;;;;;55.80;21.65;;;-3.80;86.80;;;;;;5129020;27;20031;-67
2021/01/15 00:23:07;;;;;;;56.97;23.05;;;-3.80;86.70;;;;;;5128856;27;20396;-67
2021/01/15 00:25:32;;;;;;;;;;;-3.90;86.40;;;;;;5120168;27;20054;-67
2021/01/15 00:27:58;;;;;;;70.45;27.50;;;-4.00;86.60;;;;;;5090174;28;20295;-67
2021/01/15 00:30:23;;;;;;;68.32;24.95;;;-4.00;86.50;;;;;;5089137;28;20026;-67
2021/01/15 00:32:49;;;;;;;68.10;23.92;;;-4.10;86.70;;;;;;5108452;28;20112;-68
2021/01/15 00:35:15;;;;;;;63.10;22.70;;;-4.10;87.00;;;;;;5108523;28;20024;-68
2021/01/15 00:37:41;;;;;;;46.08;18.77;;;-4.20;87.00;;;;;;5107877;28;20047;-67
2021/01/15 00:40:07;;;;;;;35.83;12.35;;;-4.10;87.30;;;;;;5108178;28;20020;-68
2021/01/15 00:42:33;;;;;;;21.35;8.95;;;-4.10;87.40;;;;;;5108178;28;20057;-68
2021/01/15 00:44:59;;;;;;;18.20;7.40;;;-3.90;87.30;;;;;;5108049;28;20031;-67
2021/01/15 00:47:25;;;;;;;16.85;6.85;;;-3.80;87.00;;;;;;5107540;28;20036;-67
2021/01/15 00:49:50;;;;;;;13.32;5.75;;;-3.50;86.30;;;;;;5107731;28;20024;-67
2021/01/15 00:52:17;;;;;;;16.95;6.70;;;-3.40;85.60;;;;;;5107815;28;20064;-68
2021/01/15 00:54:42;;;;;;;19.50;6.30;;;-3.30;84.90;;;;;;5107813;28;20094;-67
2021/01/15 00:57:08;;;;;;;12.57;6.43;;;-3.10;84.10;;;;;;5107771;28;20111;-68
2021/01/15 00:59:34;;;;;;;;;;;-3.00;83.30;;;;;;5107792;28;20031;-67
2021/01/15 01:02:00;;;;;;;12.18;5.70;;;-2.80;82.40;;;;;;5107943;28;19914;-67
2021/01/15 01:04:26;;;;;;;14.68;5.55;;;-2.70;81.60;;;;;;5089763;28;20039;-68
2021/01/15 01:06:52;;;;;;;11.15;5.47;;;-2.50;80.90;;;;;;5107361;28;20036;-67
2021/01/15 01:09:17;;;;;;;;;;;-2.50;80.30;;;;;;5107902;28;20032;-67
2021/01/15 01:11:43;;;;;;;13.80;6.15;;;-2.40;80.10;;;;;;5107573;28;19907;-68
2021/01/15 01:14:08;;;;;;;46.78;15.20;;;-2.40;80.00;;;;;;5107287;28;20020;-67
2021/01/15 01:16:35;;;;;;;;;;;-2.50;79.40;;;;;;5107631;28;20301;-68
2021/01/15 01:19:01;;;;;;;38.55;15.05;;;-2.50;79.00;;;;;;5107902;28;19907;-68
2021/01/15 01:21:27;;;;;;;34.20;14.20;;;-2.60;79.00;;;;;;5106548;28;20032;-67
2021/01/15 01:23:53;;;;;;;31.60;13.20;;;-2.70;79.20;;;;;;5107364;28;20023;-66
2021/01/15 01:26:19;;;;;;;23.58;10.75;;;-2.80;79.10;;;;;;5107039;28;20043;-67
2021/01/15 01:28:45;;;;;;;23.58;11.82;;;-2.90;79.10;;;;;;5106866;28;20801;-67
2021/01/15 01:31:12;;;;;;;19.42;10.63;;;-3.00;79.50;;;;;;5106905;28;20024;-68
2021/01/15 01:33:38;;;;;;;20.42;10.13;;;-3.10;79.90;;;;;;5107376;28;20089;-67
2021/01/15 01:36:05;;;;;;;17.25;8.48;;;-3.30;79.90;;;;;;5088489;28;20070;-68
2021/01/15 01:38:31;;;;;;;18.90;9.48;;;-3.40;80.10;;;;;;5107005;28;20479;-68
2021/01/15 01:40:56;;;;;;;20.17;9.52;;;-3.50;80.40;;;;;;5106345;28;20031;-67
2021/01/15 01:43:22;;;;;;;;;;;-3.60;81.10;;;;;;5107284;28;20036;-66
2021/01/15 01:45:48;;;;;;;32.47;11.85;;;-3.70;81.70;;;;;;5107248;28;19908;-67
2021/01/15 01:48:14;;;;;;;41.28;16.15;;;-3.80;82.10;;;;;;5107476;28;20050;-68
2021/01/15 01:50:43;;;;;;;58.05;24.45;;;-3.90;82.20;;;;;;5106437;28;20081;-67
2021/01/15 01:53:13;;;;;;;57.55;24.55;;;-4.00;82.60;;;;;;5107142;28;20096;-67
2021/01/15 01:55:40;;;;;;;101.47;39.17;;;-4.10;83.00;;;;;;5106890;28;20043;-67
2021/01/15 01:58:06;;;;;;;76.00;31.25;;;-4.20;83.30;;;;;;5107133;28;20543;-67
2021/01/15 02:00:36;;;;;;;79.00;31.85;;;-4.20;83.30;;;;;;5106680;28;20043;-68
2021/01/15 02:03:03;;;;;;;51.20;21.05;;;-4.30;83.70;;;;;;5107208;28;20034;-67
2021/01/15 02:05:28;;;;;;;35.45;14.40;;;-4.30;84.20;;;;;;5106025;28;20023;-67
2021/01/15 02:07:54;;;;;;;22.00;10.95;;;-4.40;84.60;;;;;;5106999;28;20503;-68
2021/01/15 02:10:28;;;;;;;25.88;10.85;;;-4.40;85.10;;;;;;5106661;28;20330;-68
2021/01/15 02:12:56;;;;;;;20.70;9.45;;;-4.40;85.50;;;;;;5107055;28;20031;-65
2021/01/15 02:15:30;;;;;;;19.90;8.73;;;-4.40;85.50;;;;;;5106527;28;20528;-68
2021/01/15 02:18:10;;;;;;;18.80;8.25;;;-4.40;85.40;;;;;;5106390;28;20028;-68
2021/01/15 02:21:00;;;;;;;17.00;7.20;;;-4.40;85.40;;;;;;5106331;28;20027;-67
2021/01/15 02:23:39;;;;;;;19.08;7.28;;;-4.40;85.00;;;;;;5106693;28;20023;-67
2021/01/15 02:26:05;;;;;;;17.98;7.20;;;-4.40;84.60;;;;;;5106524;27;20044;-66
2021/01/15 02:28:53;;;;;;;19.08;8.30;;;-4.30;84.70;;;;;;5106922;28;20048;-67
2021/01/15 02:31:21;;;;;;;13.30;6.28;;;-4.20;84.00;;;;;;5088875;28;20096;-67
2021/01/15 02:34:09;;;;;;;16.98;7.95;;;-4.20;83.70;;;;;;5088404;28;20115;-68
2021/01/15 02:37:03;;;;;;;20.83;8.10;;;-4.20;83.70;;;;;;5088083;28;20540;-68
2021/01/15 02:39:48;;;;;;;15.57;7.68;;;-4.20;83.70;;;;;;5099050;28;20031;-68
2021/01/15 02:42:16;;;;;;;29.60;11.88;;;-4.30;83.90;;;;;;5106599;28;20039;-68
2021/01/15 02:44:46;;;;;;;30.08;12.15;;;-4.40;84.20;;;;;;5088604;28;20157;-67
2021/01/15 02:47:18;;;;;;;30.42;13.93;;;-4.50;84.50;;;;;;5087698;28;20030;-68
2021/01/15 02:49:45;;;;;;;29.55;12.77;;;-4.50;84.90;;;;;;5106162;28;20114;-68
2021/01/15 02:52:11;;;;;;;25.38;11.70;;;-4.60;85.00;;;;;;5106709;28;20119;-68
2021/01/15 02:54:36;;;;;;;28.40;12.13;;;-4.60;85.20;;;;;;5110359;28;20157;-68
2021/01/15 02:57:03;;;;;;;31.83;12.10;;;-4.60;85.30;;;;;;5110139;28;20093;-69
2021/01/15 02:59:29;;;;;;;28.77;12.48;;;-4.60;85.70;;;;;;5110056;28;20557;-68
2021/01/15 03:02:18;;;;;;;31.15;12.98;;;-4.70;85.80;;;;;;5109762;28;20047;-68
2021/01/15 03:05:20;;;;;;;29.33;13.10;;;-4.70;85.50;;;;;;5109517;28;20067;-68
2021/01/15 03:07:51;;;;;;;28.58;12.30;;;-4.70;85.70;;;;;;5067007;28;20101;-68
2021/01/15 03:10:23;;;;;;;24.83;12.40;;;-4.80;85.70;;;;;;5092250;28;20041;-68
2021/01/15 03:12:50;;;;;;;28.98;12.52;;;-4.80;85.90;;;;;;5110010;28;20047;-68
2021/01/15 03:15:18;;;;;;;26.77;11.35;;;-4.80;86.30;;;;;;5110140;28;20110;-68
2021/01/15 03:17:48;;;;;;;43.15;19.63;;;-4.80;86.60;;;;;;5109996;28;20027;-69
2021/01/15 03:20:14;;;;;;;57.33;24.67;;;-4.90;86.50;;;;;;5109477;28;20110;-69
2021/01/15 03:22:47;;;;;;;43.38;19.33;;;-4.90;86.10;;;;;;5109390;28;20020;-68
2021/01/15 03:25:14;;;;;;;49.10;18.45;;;-4.90;86.40;;;;;;5109362;28;20055;-68
2021/01/15 03:27:56;;;;;;;44.88;18.85;;;-5.00;86.80;;;;;;5109778;28;20093;-69
2021/01/15 03:30:23;;;;;;;42.10;17.33;;;-5.10;87.00;;;;;;5109604;28;20430;-68
2021/01/15 03:32:52;;;;;;;43.45;17.67;;;-5.10;87.30;;;;;;5109244;28;20030;-69
2021/01/15 03:35:23;;;;;;;42.70;17.15;;;-5.10;87.80;;;;;;5108755;28;20500;-68
2021/01/15 03:38:02;;;;;;;40.35;15.73;;;-5.10;87.80;;;;;;5109669;28;20028;-68
2021/01/15 03:40:33;;;;;;;32.38;11.70;;;-5.00;88.20;;;;;;5109510;28;20027;-68
2021/01/15 03:43:00;;;;;;;22.73;9.27;;;-4.90;89.00;;;;;;5109760;28;20024;-68
2021/01/15 03:45:28;;;;;;;20.17;8.32;;;-4.80;89.30;;;;;;5108855;28;20019;-68
2021/01/15 03:47:54;;;;;;;17.45;7.03;;;-4.70;88.80;;;;;;5108969;28;20035;-68
2021/01/15 03:50:20;;;;;;;18.15;7.30;;;-4.50;89.00;;;;;;5090144;28;20031;-68
2021/01/15 03:52:47;;;;;;;13.52;6.32;;;-4.30;90.20;;;;;;5109266;28;20504;-69
2021/01/15 03:55:13;;;;;;;13.60;6.53;;;-4.10;90.40;;;;;;5090977;28;20019;-67
2021/01/15 03:57:38;;;;;;;15.20;6.40;;;-3.80;89.90;;;;;;5108824;28;20030;-69
2021/01/15 04:00:06;;;;;;;17.58;8.05;;;-3.60;89.40;;;;;;5108987;28;20016;-69
2021/01/15 04:02:32;;;;;;;15.68;6.95;;;-3.40;89.10;;;;;;5091019;28;20024;-68
2021/01/15 04:04:58;;;;;;;15.70;7.18;;;-3.20;88.90;;;;;;5107523;28;20034;-67
2021/01/15 04:07:23;;;;;;;;;;;-3.00;88.30;;;;;;5109305;28;20043;-66
2021/01/15 04:09:49;;;;;;;22.80;8.57;;;-2.80;87.40;;;;;;5108791;28;19950;-69
2021/01/15 04:12:14;;;;;;;17.60;8.23;;;-2.70;86.70;;;;;;5108894;28;20500;-68
2021/01/15 04:14:42;;;;;;;17.88;8.75;;;-2.60;86.10;;;;;;5108764;28;20042;-69
2021/01/15 04:17:08;;;;;;;26.85;11.63;;;-2.60;85.60;;;;;;5090120;28;20049;-69
2021/01/15 04:19:34;;;;;;;21.40;10.15;;;-2.60;84.40;;;;;;5108056;28;20074;-67
2021/01/15 04:22:00;;;;;;;24.83;10.48;;;-2.60;83.60;;;;;;5108786;28;20058;-68
2021/01/15 04:24:25;;;;;;;21.48;8.57;;;-2.60;83.40;;;;;;5108605;28;20023;-69
2021/01/15 04:26:51;;;;;;;;;;;-2.60;82.70;;;;;;5108470;28;20062;-68
2021/01/15 04:29:17;;;;;;;24.95;11.07;;;-2.60;82.60;;;;;;5090187;28;19964;-68
2021/01/15 04:31:43;;;;;;;23.80;11.10;;;-2.70;83.60;;;;;;5090024;28;20301;-68
2021/01/15 04:34:08;;;;;;;19.85;9.02;;;-2.70;82.50;;;;;;5108061;28;20019;-67
2021/01/15 04:36:34;;;;;;;;;;;-2.60;82.60;;;;;;5108980;28;20392;-68
2021/01/15 04:39:00;;;;;;;20.33;9.20;;;-2.70;82.10;;;;;;5108183;28;19910;-68
2021/01/15 04:41:28;;;;;;;14.98;7.47;;;-2.70;82.20;;;;;;5108220;28;20445;-68
2021/01/15 04:43:55;;;;;;;17.65;7.53;;;-2.70;82.70;;;;;;5107934;28;20051;-68
2021/01/15 04:46:22;;;;;;;13.73;6.70;;;-2.70;82.20;;;;;;5090179;28;20024;-68
2021/01/15 04:48:49;;;;;;;18.52;7.90;;;-2.70;82.20;;;;;;5107651;28;20040;-69
2021/01/15 04:51:20;;;;;;;15.52;6.50;;;-2.70;81.80;;;;;;5107826;28;20031;-67
2021/01/15 04:54:04;;;;;;;16.98;7.10;;;-2.60;81.70;;;;;;5107677;28;20036;-68
2021/01/15 04:56:51;;;;;;;29.10;11.32;;;-2.70;81.80;;;;;;5108158;28;20059;-68
2021/01/15 04:59:18;;;;;;;26.17;11.20;;;-2.80;82.60;;;;;;5107802;28;20046;-68
2021/01/15 05:01:45;;;;;;;15.88;8.05;;;-2.80;82.20;;;;;;5107861;28;20478;-69
2021/01/15 05:04:12;;;;;;;15.15;7.45;;;-2.80;82.40;;;;;;5088770;28;20031;-69
2021/01/15 05:06:47;;;;;;;16.35;7.40;;;-2.90;82.40;;;;;;5107939;28;20023;-68
2021/01/15 05:09:18;;;;;;;25.48;10.27;;;-2.90;82.90;;;;;;5107808;28;20032;-68
2021/01/15 05:11:45;;;;;;;20.10;8.55;;;-3.00;83.10;;;;;;5107617;28;20026;-68
2021/01/15 05:14:13;;;;;;;23.38;11.02;;;-3.10;83.50;;;;;;5107386;28;20024;-68
2021/01/15 05:16:43;;;;;;;16.88;7.65;;;-3.20;84.00;;;;;;5088858;28;20020;-67
2021/01/15 05:19:10;;;;;;;14.95;7.38;;;-3.30;84.60;;;;;;5107200;28;20032;-69
2021/01/15 05:21:37;;;;;;;13.77;5.78;;;-3.30;85.00;;;;;;5107609;28;20043;-68
2021/01/15 05:24:04;;;;;;;19.00;7.03;;;-3.30;85.20;;;;;;5089179;28;20028;-69
2021/01/15 05:26:33;;;;;;;20.35;8.68;;;-3.30;84.90;;;;;;5105588;27;20075;-68
2021/01/15 05:29:01;;;;;;;19.48;9.00;;;-3.30;84.90;;;;;;5109804;27;20060;-68
2021/01/15 05:31:27;;;;;;;24.70;10.45;;;-3.40;84.80;;;;;;5127600;27;20052;-67
2021/01/15 05:34:03;;;;;;;28.15;11.35;;;-3.50;84.90;;;;;;5127428;27;20076;-67
2021/01/15 05:36:30;;;;;;;23.95;10.10;;;-3.60;85.20;;;;;;5127501;27;20059;-68
2021/01/15 05:39:22;;;;;;;30.27;15.02;;;-3.60;85.80;;;;;;5128172;27;20028;-67
2021/01/15 05:41:50;;;;;;;25.55;11.07;;;-3.60;86.40;;;;;;5127541;27;20108;-67
2021/01/15 05:44:32;;;;;;;81.35;33.50;;;-3.60;86.70;;;;;;5127864;27;20031;-68
2021/01/15 05:46:59;;;;;;;22.45;10.00;;;-3.60;86.80;;;;;;5127805;27;20022;-67
2021/01/15 05:49:25;;;;;;;16.48;7.50;;;-3.50;86.70;;;;;;5126755;27;20031;-67
2021/01/15 05:51:51;;;;;;;20.02;8.63;;;-3.50;87.00;;;;;;5108846;28;20119;-67
2021/01/15 05:54:31;;;;;;;20.45;8.40;;;-3.40;87.60;;;;;;5127756;27;20038;-67
2021/01/15 05:56:58;;;;;;;15.35;6.45;;;-3.20;86.80;;;;;;5127433;27;20114;-68
2021/01/15 05:59:24;;;;;;;17.50;7.78;;;-3.10;86.80;;;;;;5127243;27;20031;-66
2021/01/15 06:01:53;;;;;;;21.35;8.65;;;-3.00;86.20;;;;;;5127208;27;20016;-67
2021/01/15 06:04:39;;;;;;;24.50;10.13;;;-3.00;86.00;;;;;;5127234;28;20110;-67
2021/01/15 06:07:08;;;;;;;28.17;11.70;;;-3.00;85.60;;;;;;5127026;28;20039;-67
2021/01/15 06:09:35;;;;;;;33.58;16.85;;;-3.00;85.50;;;;;;5127300;28;20035;-67
2021/01/15 06:12:09;;;;;;;61.42;25.95;;;-3.00;85.60;;;;;;5127228;28;20606;-67
2021/01/15 06:14:49;;;;;;;48.25;22.27;;;-3.10;85.80;;;;;;5127305;28;20072;-67
2021/01/15 06:17:22;;;;;;;54.72;22.75;;;-3.10;85.80;;;;;;5127074;28;20015;-66
2021/01/15 06:19:53;;;;;;;20.30;10.35;;;-3.00;86.10;;;;;;5126893;27;20038;-66
2021/01/15 06:22:26;;;;;;;31.27;14.35;;;-2.70;86.30;;;;;;5127188;27;20046;-67
2021/01/15 06:25:12;;;;;;;34.25;14.27;;;-2.50;85.20;;;;;;5127180;27;20050;-66
2021/01/15 06:27:42;;;;;;;33.55;16.85;;;-2.40;84.00;;;;;;5128642;27;20104;-67
2021/01/15 06:30:12;;;;;;;52.92;23.58;;;-2.30;83.10;;;;;;5113185;27;20049;-66
2021/01/15 06:32:39;;;;;;;35.28;17.40;;;-2.10;81.70;;;;;;5131167;27;20418;-67
2021/01/15 06:35:06;;;;;;;32.10;16.90;;;-2.10;80.90;;;;;;5130826;27;20035;-66
2021/01/15 06:37:34;;;;;;;28.90;14.48;;;-2.00;80.50;;;;;;5131378;27;20027;-66
2021/01/15 06:40:18;;;;;;;28.33;15.18;;;-2.00;80.50;;;;;;5130911;27;20039;-67
2021/01/15 06:42:45;;;;;;;31.60;14.38;;;-1.90;80.40;;;;;;5112351;27;20011;-67
2021/01/15 06:45:13;;;;;;;34.13;16.55;;;-1.80;80.70;;;;;;5112459;27;20198;-66
2021/01/15 06:47:41;;;;;;;30.48;15.55;;;-1.70;80.70;;;;;;5130648;27;20088;-67
2021/01/15 06:50:13;;;;;;;30.98;15.43;;;-1.50;80.20;;;;;;5130691;27;20023;-66
2021/01/15 06:52:50;;;;;;;26.42;11.95;;;-1.40;80.10;;;;;;5131077;27;20034;-67
2021/01/15 06:55:19;;;;;;;28.98;13.43;;;-1.30;79.80;;;;;;5130918;27;20044;-67
2021/01/15 06:57:47;;;;;;;50.92;19.48;;;-1.20;79.60;;;;;;5130637;27;20031;-66
2021/01/15 07:00:20;;;;;;;28.83;13.70;;;-1.10;78.90;;;;;;5130682;27;20027;-67
2021/01/15 07:03:40;;;;;;;23.27;11.88;;;-0.80;77.10;;;;;;5129921;27;20031;-66
2021/01/15 07:06:41;;;;;;;46.65;19.13;;;-0.90;75.70;;;;;;5046809;28;20032;-66
2021/01/15 07:09:08;;;;;;;22.42;12.18;;;-1.00;75.80;;;;;;5108356;27;20039;-66
2021/01/15 07:11:40;;;;;;;23.48;10.57;;;-1.10;76.10;;;;;;5130492;27;20092;-66
2021/01/15 07:14:06;;;;;;;29.13;12.02;;;-1.20;77.10;;;;;;5112415;27;20031;-67
2021/01/15 07:16:32;;;;;;;;;;;-1.30;78.50;;;;;;5130498;27;20027;-67
2021/01/15 07:19:12;;;;;;;32.15;17.15;;;-1.30;78.60;;;;;;5130627;27;20323;-66
2021/01/15 07:21:43;;;;;;;31.52;15.90;;;-1.30;78.70;;;;;;5130239;27;20015;-66
2021/01/15 07:24:09;;;;;;;25.98;13.23;;;-1.30;78.90;;;;;;5130153;27;20084;-66
2021/01/15 07:26:41;;;;;;;;;;;-1.30;79.10;;;;;;5130412;27;20047;-66
2021/01/15 07:29:13;;;;;;;28.88;11.85;;;-1.20;79.80;;;;;;5129775;27;19922;-66
2021/01/15 07:31:41;;;;;;;45.25;19.27;;;-1.20;79.90;;;;;;5129763;27;20027;-66
2021/01/15 07:34:17;;;;;;;75.75;34.65;;;-1.30;80.00;;;;;;5129795;27;20027;-67
2021/01/15 07:36:43;;;;;;;57.38;25.55;;;-1.30;80.20;;;;;;5130150;27;20030;-66
2021/01/15 07:39:29;;;;;;;49.15;23.15;;;-1.30;80.50;;;;;;5128354;27;20031;-65
2021/01/15 07:41:54;;;;;;;40.28;19.58;;;-1.30;81.00;;;;;;5128902;27;20122;-66
2021/01/15 07:44:23;;;;;;;;;;;-1.30;81.50;;;;;;5130144;27;20500;-66
2021/01/15 07:46:52;;;;;;;30.27;14.45;;;-1.20;81.60;;;;;;5129375;27;19910;-66
2021/01/15 07:49:18;;;;;;;39.30;18.33;;;-1.20;81.20;;;;;;5129738;27;20499;-65
2021/01/15 07:52:04;;;;;;;;;;;-1.10;81.00;;;;;;5130134;27;20030;-66
2021/01/15 07:54:49;;;;;;;43.10;18.58;;;-1.10;80.90;;;;;;5129862;27;19946;-66
2021/01/15 07:57:16;;;;;;;43.22;19.77;;;-1.00;80.60;;;;;;5129239;27;20079;-66
2021/01/15 07:59:42;;;;;;;46.17;19.85;;;-1.00;80.60;;;;;;5128984;27;20046;-67
2021/01/15 08:02:07;;;;;;;;;;;-0.90;80.50;;;;;;5129792;27;20027;-65
2021/01/15 08:04:33;;;;;;;45.78;22.83;;;-0.90;80.60;;;;;;5111013;27;19904;-66
2021/01/15 08:07:22;;;;;;;;;;;-0.90;80.70;;;;;;5129089;27;20029;-66
2021/01/15 08:09:47;;;;;;;38.83;16.65;;;-0.90;80.10;;;;;;5102072;27;19911;-66
2021/01/15 08:12:13;;;;;;;;;;;-0.90;79.70;;;;;;5129716;27;20243;-65
2021/01/15 08:14:38;;;;;;;41.35;19.35;;;-0.90;79.10;;;;;;5128909;27;19907;-66
2021/01/15 08:17:06;;;;;;;;;;;-0.90;79.30;;;;;;5110895;27;20415;-66
2021/01/15 08:19:35;;;;;;;38.25;17.17;;;-0.90;79.00;;;;;;5129112;27;19911;-66
2021/01/15 08:22:02;;;;;;;30.13;14.82;;;-0.90;78.90;;;;;;5128757;27;20027;-65
2021/01/15 08:24:28;;;;;;;111.05;47.65;;;-0.90;78.80;;;;;;5129173;27;20050;-67
2021/01/15 08:26:56;;;;;;;;;;;-0.90;79.20;;;;;;5129186;27;20105;-66
2021/01/15 08:29:30;;;;;;;196.70;73.13;;;-0.80;79.10;;;;;;5128821;27;19941;-66
2021/01/15 08:31:58;;;;;;;31.38;14.10;;;-0.70;78.60;;;;;;5128447;27;20047;-66
2021/01/15 08:34:31;;;;;;;24.65;10.75;;;-0.60;77.00;;;;;;5128209;27;20038;-66
2021/01/15 08:36:58;;;;;;;27.17;12.90;;;-0.60;77.80;;;;;;5129122;27;20030;-68
2021/01/15 08:39:24;;;;;;;32.28;13.75;;;-0.60;77.20;;;;;;5128732;27;20019;-68
2021/01/15 08:41:58;;;;;;;29.90;13.60;;;-0.80;77.40;;;;;;5128412;27;20126;-68
2021/01/15 08:44:24;;;;;;;25.30;12.38;;;-1.00;78.70;;;;;;5128873;27;20019;-68
2021/01/15 08:46:53;;;;;;;22.13;11.80;;;-1.00;78.80;;;;;;5128188;27;20027;-68
2021/01/15 08:49:19;;;;;;;26.35;11.85;;;-1.10;79.30;;;;;;5128236;27;20035;-68
2021/01/15 08:51:50;;;;;;;;;;;-1.10;80.10;;;;;;5128577;27;20037;-68
2021/01/15 08:54:17;;;;;;;27.85;12.65;;;-1.40;81.10;;;;;;5128150;27;19907;-66
2021/01/15 08:56:45;;;;;;;25.45;13.30;;;-1.50;82.30;;;;;;5128549;27;20456;-67
2021/01/15 08:59:28;;;;;;;34.35;15.02;;;-1.60;82.90;;;;;;5110175;27;20023;-67
2021/01/15 09:01:56;;;;;;;36.90;13.23;;;-1.60;83.60;;;;;;5128058;27;20023;-66
2021/01/15 09:04:26;;;;;;;24.58;11.40;;;-1.50;84.80;;;;;;5128285;27;20178;-66
2021/01/15 09:06:53;;;;;;;32.72;14.65;;;-1.30;83.90;;;;;;5127736;27;20113;-65
2021/01/15 09:09:21;;;;;;;25.23;11.45;;;-1.30;84.10;;;;;;5128228;27;20030;-66
2021/01/15 09:11:49;;;;;;;23.27;10.40;;;-1.20;84.10;;;;;;5127760;27;20376;-66
2021/01/15 09:14:23;;;;;;;25.33;11.68;;;-1.20;84.00;;;;;;5127901;27;20031;-66
2021/01/15 09:16:50;;;;;;;21.58;11.18;;;-1.10;84.20;;;;;;5109356;27;20023;-66
2021/01/15 09:19:16;;;;;;;43.45;17.85;;;-1.00;85.10;;;;;;5127734;27;20027;-65
2021/01/15 09:21:51;;;;;;;43.92;22.60;;;-0.90;84.70;;;;;;5109229;27;20091;-66
2021/01/15 09:24:20;;;;;;;35.08;19.02;;;-0.90;84.70;;;;;;5127879;27;20027;-66
2021/01/15 09:26:47;;;;;;;42.75;22.02;;;-0.80;84.60;;;;;;5110045;27;20055;-66
2021/01/15 09:29:14;;;;;;;37.38;20.23;;;-0.70;84.80;;;;;;5127449;27;20038;-66
2021/01/15 09:31:41;;;;;;;36.97;19.85;;;-0.50;84.70;;;;;;5127310;27;20405;-65
2021/01/15 09:34:10;;;;;;;49.35;22.70;;;-0.40;83.70;;;;;;5127639;27;20495;-65
2021/01/15 09:36:40;;;;;;;52.92;26.33;;;-0.40;83.50;;;;;;5127944;27;20019;-66
2021/01/15 09:39:06;;;;;;;41.70;21.42;;;-0.30;84.30;;;;;;5127839;27;20094;-66
2021/01/15 09:41:32;;;;;;;;;;;-0.20;84.10;;;;;;5127444;27;20133;-65
2021/01/15 09:43:57;;;;;;;62.58;29.45;;;-0.10;84.00;;;;;;5127641;27;20390;-65
2021/01/15 09:46:27;;;;;;;;;;;0.10;84.00;;;;;;5109169;27;20034;-65
2021/01/15 09:48:56;;;;;;;60.10;30.08;;;0.10;83.50;;;;;;5127321;27;19915;-66
2021/01/15 09:51:28;;;;;;;52.00;27.05;;;0.20;83.00;;;;;;5127260;27;20432;-66
2021/01/15 09:53:55;;;;;;;45.15;25.00;;;0.30;82.70;;;;;;5127034;27;20069;-66
2021/01/15 09:56:33;;;;;;;37.30;16.35;;;0.30;82.00;;;;;;5127524;27;20019;-66
2021/01/15 09:59:00;;;;;;;25.17;13.18;;;0.40;80.60;;;;;;5127353;27;20092;-66
2021/01/15 10:01:27;;;;;;;28.10;12.25;;;0.40;79.20;;;;;;5126135;27;20552;-66
2021/01/15 10:03:57;;;;;;;40.38;22.02;;;0.30;80.20;;;;;;5126910;27;20037;-66
2021/01/15 10:06:27;;;;;;;37.58;14.98;;;0.30;80.90;;;;;;5127021;28;20065;-65
2021/01/15 10:08:53;;;;;;;39.28;13.88;;;0.30;80.50;;;;;;5126861;28;20070;-68
2021/01/15 10:11:19;;;;;;;;;;;0.40;79.00;;;;;;5127512;28;20037;-68
2021/01/15 10:13:46;;;;;;;27.47;13.07;;;0.40;78.80;;;;;;5127008;28;19904;-68
2021/01/15 10:16:11;;;;;;;21.83;10.10;;;0.40;78.60;;;;;;5126116;28;20019;-66
2021/01/15 10:18:38;;;;;;;;;;;0.30;79.20;;;;;;5127596;27;20038;-68
2021/01/15 10:21:03;;;;;;;22.87;10.83;;;0.10;79.80;;;;;;5127211;28;19910;-67
2021/01/15 10:23:29;;;;;;;;;;;0.10;80.80;;;;;;5127528;28;20576;-68
2021/01/15 10:25:55;;;;;;;15.52;9.00;;;0.00;81.40;;;;;;5126735;28;19916;-66
2021/01/15 10:28:21;;;;;;;;;;;0.20;80.90;;;;;;5127514;27;20053;-66
2021/01/15 10:30:47;;;;;;;21.27;10.60;;;0.20;80.50;;;;;;5126039;28;19916;-68
2021/01/15 10:33:14;;;;;;;19.13;10.23;;;0.20;80.30;;;;;;5127093;27;20449;-67
2021/01/15 10:35:40;;;;;;;21.80;10.98;;;0.20;80.40;;;;;;5126443;28;20045;-67
2021/01/15 10:38:06;;;;;;;27.17;13.70;;;0.20;80.30;;;;;;5126695;28;20495;-67
2021/01/15 10:40:32;;;;;;;;;;;0.10;80.80;;;;;;5127433;28;20031;-67
2021/01/15 10:42:57;;;;;;;23.00;11.70;;;0.00;81.70;;;;;;5126201;27;19907;-67
2021/01/15 10:45:23;;;;;;;;;;;-0.20;83.20;;;;;;5126743;27;20023;-68
2021/01/15 10:47:48;;;;;;;24.08;12.25;;;-0.20;83.20;;;;;;5126836;28;20363;-67
2021/01/15 10:50:16;;;;;;;;;;;-0.20;83.80;;;;;;5108878;28;20023;-67
2021/01/15 10:52:41;;;;;;;24.02;12.75;;;-0.20;84.20;;;;;;5126715;28;19956;-67
2021/01/15 10:55:07;;;;;;;;;;;-0.20;84.50;;;;;;5127317;28;20417;-67
2021/01/15 10:57:33;;;;;;;24.90;12.70;;;-0.20;84.70;;;;;;5126470;28;19907;-67
2021/01/15 10:59:58;;;;;;;;;;;-0.20;84.90;;;;;;5126913;28;20027;-67
2021/01/15 11:02:24;;;;;;;22.05;11.45;;;-0.10;84.80;;;;;;5126412;28;19908;-68
2021/01/15 11:04:49;;;;;;;;;;;-0.10;84.90;;;;;;5108841;28;20054;-67
2021/01/15 11:07:15;;;;;;;20.95;12.00;;;-0.10;84.80;;;;;;5107801;28;19963;-67
2021/01/15 11:09:40;;;;;;;;;;;-0.20;84.90;;;;;;5126609;28;20027;-68
2021/01/15 11:12:07;;;;;;;23.50;12.73;;;-0.20;85.40;;;;;;5126545;27;20359;-68
2021/01/15 11:14:32;;;;;;;28.10;12.57;;;-0.20;85.70;;;;;;5128766;27;20030;-68
2021/01/15 11:16:58;;;;;;;;;;;-0.20;86.10;;;;;;5130054;27;20027;-68
2021/01/15 11:19:24;;;;;;;30.67;16.60;;;-0.20;86.00;;;;;;5130046;27;20002;-67
2021/01/15 11:21:52;;;;;;;;;;;-0.20;86.20;;;;;;5111706;27;20023;-68
2021/01/15 11:24:18;;;;;;;24.98;13.30;;;-0.10;86.90;;;;;;5130473;27;20719;-67
2021/01/15 11:26:44;;;;;;;;;;;-0.10;87.00;;;;;;5129418;27;20067;-67
2021/01/15 11:29:10;;;;;;;67.07;33.03;;;-0.10;87.00;;;;;;5129622;27;20538;-67
2021/01/15 11:31:35;;;;;;;;;;;0.00;87.30;;;;;;5129964;27;20433;-67
2021/01/15 11:34:01;;;;;;;33.83;16.10;;;0.10;87.30;;;;;;5130008;27;19915;-65
2021/01/15 11:36:33;;;;;;;;;;;0.20;87.00;;;;;;5129736;27;20493;-66
2021/01/15 11:38:59;;;;;;;26.35;13.60;;;0.20;87.60;;;;;;5129472;27;19932;-65
2021/01/15 11:41:25;;;;;;;25.67;13.57;;;0.30;87.50;;;;;;5129563;27;20027;-66
2021/01/15 11:43:51;;;;;;;;;;;0.30;87.20;;;;;;5129310;27;20027;-66
2021/01/15 11:46:16;;;;;;;41.53;20.38;;;0.30;87.30;;;;;;5129700;27;19903;-65
2021/01/15 11:48:42;;;;;;;;;;;0.30;87.10;;;;;;5130104;27;20121;-65
2021/01/15 11:51:10;;;;;;;26.38;14.93;;;0.30;87.30;;;;;;5111184;27;19911;-65
2021/01/15 11:53:37;;;;;;;27.70;14.15;;;0.30;87.90;;;;;;5129137;27;20031;-66
2021/01/15 11:56:05;;;;;;;27.75;13.95;;;0.40;87.60;;;;;;5129477;27;20088;-66
2021/01/15 11:58:31;;;;;;;31.38;15.07;;;0.40;87.50;;;;;;5129320;27;20034;-66
2021/01/15 12:00:56;;;;;;;;;;;0.40;87.20;;;;;;5129520;27;20019;-65
2021/01/15 12:03:22;;;;;;;37.15;19.08;;;0.40;86.70;;;;;;5110905;27;19912;-66
2021/01/15 12:05:49;;;;;;;32.15;18.98;;;0.30;86.40;;;;;;5129294;27;20376;-66
2021/01/15 12:08:19;;;;;;;33.42;18.20;;;0.30;86.50;;;;;;5128787;27;20035;-64
2021/01/15 12:10:54;;;;;;;28.15;17.63;;;0.20;85.90;;;;;;5111047;27;20538;-65
2021/01/15 12:13:20;;;;;;;28.13;15.80;;;0.10;85.80;;;;;;5128889;27;20102;-65
2021/01/15 12:15:50;;;;;;;23.85;13.00;;;0.00;86.20;;;;;;5128774;27;20052;-65
2021/01/15 12:18:16;;;;;;;20.40;12.05;;;0.00;86.30;;;;;;5129327;27;20027;-66
2021/01/15 12:20:41;;;;;;;;;;;-0.10;85.60;;;;;;5128993;27;20502;-65
2021/01/15 12:23:07;;;;;;;23.67;13.73;;;-0.10;84.90;;;;;;5129182;27;19911;-65
2021/01/15 12:25:35;;;;;;;;;;;-0.20;85.70;;;;;;5110104;27;20047;-65
2021/01/15 12:28:00;;;;;;;23.45;13.07;;;-0.20;86.70;;;;;;5128442;27;19980;-66
2021/01/15 12:30:26;;;;;;;;;;;-0.20;87.20;;;;;;5129022;27;20024;-66
2021/01/15 12:32:51;;;;;;;20.38;10.82;;;-0.30;88.00;;;;;;5128755;27;20442;-65
2021/01/15 12:35:20;;;;;;;;;;;-0.30;86.50;;;;;;5129299;27;20034;-65
2021/01/15 12:37:46;;;;;;;20.45;9.77;;;-0.30;85.80;;;;;;5128603;27;19954;-65
2021/01/15 12:40:12;;;;;;;;;;;-0.30;85.80;;;;;;5129259;27;20148;-67
2021/01/15 12:42:38;;;;;;;24.73;12.45;;;-0.30;85.10;;;;;;5128356;27;19994;-65
2021/01/15 12:45:04;;;;;;;;;;;-0.40;85.50;;;;;;5128328;27;20102;-66
2021/01/15 12:47:29;;;;;;;28.95;12.75;;;-0.40;85.70;;;;;;5128360;27;20294;-66
2021/01/15 12:49:55;;;;;;;;;;;-0.40;86.30;;;;;;5109653;27;20080;-66
2021/01/15 12:52:20;;;;;;;26.08;14.30;;;-0.30;86.50;;;;;;5128548;27;19907;-66
2021/01/15 12:54:46;;;;;;;;;;;-0.30;86.50;;;;;;5128543;27;20027;-66